TUI801 EDDH-LSGG
Flight info
| Callsign | TUI801 |
|---|---|
| Flight time | 1h 25m |
| Altitude | 38000 |
| Route | HABFU1G/33 HABFU Y348 MAWEQ DCT NVO DCT LIMGO/N0447F370 N852 SUTAL DCT GTQ DCT POGOL DCT LASAT DCT MOROK Z24 AKITO AKIT2N LSGG/04 |
| Aircraft | B737/M-VGDW/C |
Departure
| Time | 2026-05-07 19:28 |
|---|---|
| Airport | Hamburg Helmut Schmidt Airport (EDDH) |
Arrival
| Time | 2026-05-07 20:53 |
|---|---|
| Airport | Geneva International Airport (LSGG) |
| Time | Latitude | Longitude | Altitude | Speed | Heading |
|---|---|---|---|---|---|
| 2026-05-07 19:00 | 53.63004 | 10.00360 | 50 ft | 0 kts | 122° |
| 2026-05-07 19:21 | 53.63010 | 10.00343 | 50 ft | 2 kts | 122° |
| 2026-05-07 19:21 | 53.63019 | 10.00319 | 49 ft | 2 kts | 123° |
| 2026-05-07 19:21 | 53.63028 | 10.00296 | 48 ft | 2 kts | 123° |
| 2026-05-07 19:21 | 53.63037 | 10.00273 | 47 ft | 2 kts | 124° |
| 2026-05-07 19:22 | 53.63047 | 10.00250 | 44 ft | 2 kts | 127° |
| 2026-05-07 19:22 | 53.63057 | 10.00228 | 50 ft | 2 kts | 130° |
| 2026-05-07 19:22 | 53.63068 | 10.00208 | 50 ft | 2 kts | 139° |
| 2026-05-07 19:22 | 53.63075 | 10.00196 | 50 ft | 0 kts | 222° |
| 2026-05-07 19:23 | 53.63064 | 10.00182 | 50 ft | 6 kts | 215° |
| 2026-05-07 19:24 | 53.63020 | 10.00136 | 48 ft | 9 kts | 212° |
| 2026-05-07 19:24 | 53.62969 | 10.00082 | 50 ft | 8 kts | 212° |
| 2026-05-07 19:24 | 53.62929 | 10.00015 | 50 ft | 8 kts | 235° |
| 2026-05-07 19:24 | 53.62900 | 9.99935 | 49 ft | 8 kts | 242° |
| 2026-05-07 19:25 | 53.62893 | 9.99913 | 51 ft | 0 kts | 243° |
| 2026-05-07 19:26 | 53.62878 | 9.99863 | 51 ft | 11 kts | 243° |
| 2026-05-07 19:27 | 53.62872 | 9.99744 | 49 ft | 11 kts | 304° |
| 2026-05-07 19:27 | 53.62971 | 9.99644 | 51 ft | 42 kts | 332° |
| 2026-05-07 19:27 | 53.63503 | 9.99188 | 52 ft | 125 kts | 333° |
| 2026-05-07 19:27 | 53.64448 | 9.98402 | 378 ft | 162 kts | 338° |
| 2026-05-07 19:28 | 53.65426 | 9.97593 | 1392 ft | 161 kts | 336° |
| 2026-05-07 19:28 | 53.66455 | 9.96696 | 2111 ft | 177 kts | 337° |
| 2026-05-07 19:28 | 53.67645 | 9.95685 | 2433 ft | 210 kts | 336° |
| 2026-05-07 19:28 | 53.68997 | 9.94542 | 3056 ft | 221 kts | 336° |
| 2026-05-07 19:29 | 53.70370 | 9.93317 | 3864 ft | 227 kts | 325° |
| 2026-05-07 19:29 | 53.71318 | 9.91224 | 4753 ft | 233 kts | 290° |
| 2026-05-07 19:29 | 53.71393 | 9.88345 | 5058 ft | 263 kts | 255° |
| 2026-05-07 19:29 | 53.70791 | 9.85307 | 5030 ft | 276 kts | 249° |
| 2026-05-07 19:30 | 53.70132 | 9.82288 | 5029 ft | 275 kts | 249° |
| 2026-05-07 19:30 | 53.69490 | 9.79224 | 5022 ft | 274 kts | 250° |
| 2026-05-07 19:30 | 53.68877 | 9.76218 | 5022 ft | 273 kts | 250° |
| 2026-05-07 19:30 | 53.68264 | 9.73160 | 5017 ft | 272 kts | 251° |
| 2026-05-07 19:31 | 53.67669 | 9.70146 | 5017 ft | 272 kts | 251° |
| 2026-05-07 19:31 | 53.67068 | 9.67100 | 5020 ft | 271 kts | 251° |
| 2026-05-07 19:31 | 53.66474 | 9.64092 | 5036 ft | 270 kts | 251° |
| 2026-05-07 19:31 | 53.65892 | 9.61151 | 5424 ft | 268 kts | 251° |
| 2026-05-07 19:32 | 53.65041 | 9.58271 | 6153 ft | 277 kts | 229° |
| 2026-05-07 19:32 | 53.63553 | 9.56194 | 6925 ft | 283 kts | 210° |
| 2026-05-07 19:32 | 53.61841 | 9.54597 | 7485 ft | 283 kts | 207° |
| 2026-05-07 19:32 | 53.60106 | 9.53065 | 8036 ft | 281 kts | 207° |
| 2026-05-07 19:33 | 53.58376 | 9.51539 | 8605 ft | 283 kts | 207° |
| 2026-05-07 19:33 | 53.56627 | 9.49981 | 9190 ft | 284 kts | 207° |
| 2026-05-07 19:33 | 53.54871 | 9.48401 | 9776 ft | 283 kts | 208° |
| 2026-05-07 19:33 | 53.53119 | 9.46815 | 10113 ft | 289 kts | 208° |
| 2026-05-07 19:34 | 53.51358 | 9.45215 | 10107 ft | 289 kts | 208° |
| 2026-05-07 19:34 | 53.49578 | 9.43594 | 10124 ft | 289 kts | 208° |
| 2026-05-07 19:34 | 53.47832 | 9.42002 | 10125 ft | 288 kts | 208° |
| 2026-05-07 19:34 | 53.46064 | 9.40393 | 10121 ft | 289 kts | 208° |
| 2026-05-07 19:35 | 53.44278 | 9.38769 | 10118 ft | 289 kts | 208° |
| 2026-05-07 19:35 | 53.42527 | 9.37177 | 10133 ft | 287 kts | 208° |
| 2026-05-07 19:35 | 53.40777 | 9.35589 | 10679 ft | 285 kts | 208° |
| 2026-05-07 19:35 | 53.39014 | 9.33990 | 11217 ft | 291 kts | 208° |
| 2026-05-07 19:36 | 53.37224 | 9.32367 | 11781 ft | 294 kts | 208° |
| 2026-05-07 19:36 | 53.35409 | 9.30724 | 12284 ft | 296 kts | 208° |
| 2026-05-07 19:36 | 53.33601 | 9.29090 | 12812 ft | 297 kts | 208° |
| 2026-05-07 19:36 | 53.31729 | 9.27688 | 13320 ft | 299 kts | 195° |
| 2026-05-07 19:37 | 53.29671 | 9.26987 | 13880 ft | 300 kts | 190° |
| 2026-05-07 19:37 | 53.27616 | 9.26409 | 14360 ft | 302 kts | 190° |
| 2026-05-07 19:37 | 53.25542 | 9.25838 | 14849 ft | 304 kts | 190° |
| 2026-05-07 19:37 | 53.23423 | 9.25246 | 15351 ft | 307 kts | 190° |
| 2026-05-07 19:38 | 53.21305 | 9.24641 | 15859 ft | 310 kts | 190° |
| 2026-05-07 19:38 | 53.19173 | 9.24022 | 16374 ft | 313 kts | 190° |
| 2026-05-07 19:38 | 53.17029 | 9.23394 | 16894 ft | 315 kts | 191° |
| 2026-05-07 19:38 | 53.14820 | 9.22743 | 17101 ft | 337 kts | 191° |
| 2026-05-07 19:39 | 53.12417 | 9.22031 | 17298 ft | 360 kts | 191° |
| 2026-05-07 19:39 | 53.09888 | 9.21283 | 17682 ft | 376 kts | 191° |
| 2026-05-07 19:39 | 53.07281 | 9.20512 | 18420 ft | 381 kts | 191° |
| 2026-05-07 19:39 | 53.04686 | 9.19747 | 19147 ft | 383 kts | 191° |
| 2026-05-07 19:40 | 53.02022 | 9.18961 | 19836 ft | 387 kts | 191° |
| 2026-05-07 19:40 | 52.99355 | 9.18174 | 20497 ft | 391 kts | 191° |
| 2026-05-07 19:40 | 52.96678 | 9.17386 | 21165 ft | 395 kts | 191° |
| 2026-05-07 19:40 | 52.94028 | 9.16184 | 21802 ft | 397 kts | 205° |
| 2026-05-07 19:41 | 52.91557 | 9.14058 | 22502 ft | 399 kts | 209° |
| 2026-05-07 19:41 | 52.89116 | 9.11840 | 23153 ft | 402 kts | 210° |
| 2026-05-07 19:41 | 52.86667 | 9.09615 | 23743 ft | 407 kts | 210° |
| 2026-05-07 19:41 | 52.84140 | 9.07349 | 24273 ft | 410 kts | 209° |
| 2026-05-07 19:42 | 52.81614 | 9.05114 | 24797 ft | 413 kts | 209° |
| 2026-05-07 19:42 | 52.79080 | 9.02893 | 25304 ft | 416 kts | 208° |
| 2026-05-07 19:42 | 52.76508 | 9.00649 | 25804 ft | 419 kts | 208° |
| 2026-05-07 19:42 | 52.73947 | 8.98419 | 26292 ft | 422 kts | 208° |
| 2026-05-07 19:43 | 52.71317 | 8.96133 | 26780 ft | 425 kts | 208° |
| 2026-05-07 19:43 | 52.68699 | 8.93859 | 27240 ft | 428 kts | 208° |
| 2026-05-07 19:43 | 52.66040 | 8.91552 | 27695 ft | 431 kts | 208° |
| 2026-05-07 19:43 | 52.63381 | 8.89247 | 28113 ft | 434 kts | 208° |
| 2026-05-07 19:44 | 52.60714 | 8.86937 | 28558 ft | 437 kts | 208° |
| 2026-05-07 19:44 | 52.57990 | 8.84580 | 28994 ft | 440 kts | 208° |
| 2026-05-07 19:44 | 52.55272 | 8.82232 | 29401 ft | 443 kts | 208° |
| 2026-05-07 19:44 | 52.52539 | 8.79874 | 29802 ft | 446 kts | 208° |
| 2026-05-07 19:45 | 52.49803 | 8.77517 | 30177 ft | 448 kts | 208° |
| 2026-05-07 19:45 | 52.47003 | 8.75108 | 30498 ft | 450 kts | 208° |
| 2026-05-07 19:45 | 52.44234 | 8.72729 | 30814 ft | 452 kts | 208° |
| 2026-05-07 19:45 | 52.41455 | 8.70345 | 31201 ft | 452 kts | 208° |
| 2026-05-07 19:46 | 52.38669 | 8.67958 | 31671 ft | 450 kts | 208° |
| 2026-05-07 19:46 | 52.35882 | 8.65573 | 32134 ft | 448 kts | 208° |
| 2026-05-07 19:46 | 52.33139 | 8.63228 | 32540 ft | 447 kts | 208° |
| 2026-05-07 19:46 | 52.30393 | 8.60886 | 32908 ft | 447 kts | 208° |
| 2026-05-07 19:47 | 52.27665 | 8.58457 | 33265 ft | 446 kts | 212° |
| 2026-05-07 19:47 | 52.25158 | 8.55480 | 33646 ft | 445 kts | 220° |
| 2026-05-07 19:47 | 52.22819 | 8.52213 | 34054 ft | 443 kts | 221° |
| 2026-05-07 19:47 | 52.20471 | 8.48878 | 34086 ft | 449 kts | 221° |
| 2026-05-07 19:48 | 52.15752 | 8.42185 | 34097 ft | 447 kts | 221° |
| 2026-05-07 19:48 | 52.11090 | 8.35657 | 34104 ft | 440 kts | 221° |
| 2026-05-07 19:49 | 52.06442 | 8.29210 | 34466 ft | 435 kts | 221° |
| 2026-05-07 19:49 | 52.04144 | 8.26035 | 34785 ft | 434 kts | 221° |
| 2026-05-07 19:49 | 52.01829 | 8.22840 | 34979 ft | 437 kts | 221° |
| 2026-05-07 19:50 | 51.99500 | 8.19632 | 35147 ft | 440 kts | 221° |
| 2026-05-07 19:50 | 51.97182 | 8.16441 | 35343 ft | 441 kts | 221° |
| 2026-05-07 19:50 | 51.94826 | 8.13204 | 35605 ft | 441 kts | 221° |
| 2026-05-07 19:50 | 51.92497 | 8.10008 | 35882 ft | 441 kts | 221° |
| 2026-05-07 19:51 | 51.90158 | 8.06803 | 36145 ft | 440 kts | 221° |
| 2026-05-07 19:51 | 51.87817 | 8.03599 | 36382 ft | 441 kts | 221° |
| 2026-05-07 19:51 | 51.85457 | 8.00374 | 36633 ft | 441 kts | 221° |
| 2026-05-07 19:51 | 51.83137 | 7.97208 | 36897 ft | 440 kts | 221° |
| 2026-05-07 19:52 | 51.80804 | 7.94028 | 37127 ft | 440 kts | 221° |
| 2026-05-07 19:52 | 51.78435 | 7.90805 | 37370 ft | 441 kts | 221° |
| 2026-05-07 19:52 | 51.76101 | 7.87632 | 37595 ft | 441 kts | 221° |
| 2026-05-07 19:52 | 51.73761 | 7.84458 | 37839 ft | 440 kts | 221° |
| 2026-05-07 19:53 | 51.71427 | 7.81295 | 38069 ft | 440 kts | 221° |
| 2026-05-07 19:53 | 51.69078 | 7.78115 | 38087 ft | 444 kts | 221° |
| 2026-05-07 19:53 | 51.64358 | 7.71741 | 38094 ft | 442 kts | 221° |
| 2026-05-07 19:54 | 51.59647 | 7.65399 | 38096 ft | 438 kts | 221° |
| 2026-05-07 19:54 | 51.55017 | 7.59181 | 38098 ft | 435 kts | 221° |
| 2026-05-07 19:55 | 51.50364 | 7.52949 | 38105 ft | 433 kts | 221° |
| 2026-05-07 19:55 | 51.45757 | 7.46797 | 38108 ft | 432 kts | 221° |
| 2026-05-07 19:56 | 51.41124 | 7.40625 | 38101 ft | 433 kts | 221° |
| 2026-05-07 19:56 | 51.36473 | 7.34447 | 38107 ft | 435 kts | 221° |
| 2026-05-07 19:57 | 51.31797 | 7.28252 | 38096 ft | 437 kts | 220° |
| 2026-05-07 19:57 | 51.27109 | 7.22060 | 38087 ft | 439 kts | 220° |
| 2026-05-07 19:58 | 51.22374 | 7.15820 | 38091 ft | 446 kts | 220° |
| 2026-05-07 19:58 | 51.17811 | 7.09825 | 38073 ft | 447 kts | 220° |
| 2026-05-07 19:59 | 51.13016 | 7.03543 | 38079 ft | 447 kts | 220° |
| 2026-05-07 19:59 | 51.08989 | 6.98279 | 38073 ft | 446 kts | 220° |
| 2026-05-07 20:00 | 51.04223 | 6.92066 | 38073 ft | 445 kts | 220° |
| 2026-05-07 20:00 | 50.99427 | 6.85837 | 38077 ft | 445 kts | 219° |
| 2026-05-07 20:01 | 50.93994 | 6.81111 | 38072 ft | 447 kts | 200° |
| 2026-05-07 20:01 | 50.87964 | 6.78524 | 38070 ft | 448 kts | 196° |
| 2026-05-07 20:02 | 50.81940 | 6.76120 | 38075 ft | 448 kts | 196° |
| 2026-05-07 20:02 | 50.75893 | 6.73660 | 38072 ft | 448 kts | 197° |
| 2026-05-07 20:03 | 50.69850 | 6.71163 | 38077 ft | 447 kts | 197° |
| 2026-05-07 20:03 | 50.63837 | 6.68672 | 38078 ft | 447 kts | 197° |
| 2026-05-07 20:04 | 50.57803 | 6.66179 | 38074 ft | 447 kts | 197° |
| 2026-05-07 20:04 | 50.51808 | 6.63709 | 38073 ft | 447 kts | 197° |
| 2026-05-07 20:05 | 50.45740 | 6.61430 | 38073 ft | 449 kts | 192° |
| 2026-05-07 20:05 | 50.39541 | 6.59998 | 38063 ft | 450 kts | 190° |
| 2026-05-07 20:06 | 50.33339 | 6.58690 | 38074 ft | 449 kts | 190° |
| 2026-05-07 20:06 | 50.27180 | 6.57331 | 38068 ft | 449 kts | 191° |
| 2026-05-07 20:07 | 50.20999 | 6.55924 | 38059 ft | 449 kts | 191° |
| 2026-05-07 20:07 | 50.14791 | 6.54502 | 38053 ft | 449 kts | 191° |
| 2026-05-07 20:08 | 50.08618 | 6.53092 | 38061 ft | 449 kts | 191° |
| 2026-05-07 20:08 | 50.02424 | 6.51683 | 38058 ft | 449 kts | 191° |
| 2026-05-07 20:09 | 49.96237 | 6.50280 | 38055 ft | 449 kts | 191° |
| 2026-05-07 20:10 | 49.86944 | 6.48179 | 38055 ft | 449 kts | 191° |
| 2026-05-07 20:10 | 49.80778 | 6.46790 | 38054 ft | 449 kts | 191° |
| 2026-05-07 20:11 | 49.74580 | 6.45399 | 38064 ft | 449 kts | 190° |
| 2026-05-07 20:11 | 49.68313 | 6.45671 | 38059 ft | 456 kts | 170° |
| 2026-05-07 20:12 | 49.62151 | 6.48030 | 38068 ft | 457 kts | 168° |
| 2026-05-07 20:12 | 49.55983 | 6.50436 | 37535 ft | 463 kts | 169° |
| 2026-05-07 20:12 | 49.52849 | 6.51629 | 37153 ft | 460 kts | 169° |
| 2026-05-07 20:13 | 49.49757 | 6.52794 | 36752 ft | 457 kts | 169° |
| 2026-05-07 20:13 | 49.46675 | 6.53944 | 36365 ft | 456 kts | 169° |
| 2026-05-07 20:13 | 49.43606 | 6.55084 | 35991 ft | 456 kts | 169° |
| 2026-05-07 20:13 | 49.40486 | 6.56239 | 35621 ft | 455 kts | 169° |
| 2026-05-07 20:14 | 49.37438 | 6.57367 | 35256 ft | 455 kts | 169° |
| 2026-05-07 20:14 | 49.34328 | 6.58516 | 34888 ft | 455 kts | 169° |
| 2026-05-07 20:14 | 49.31271 | 6.59646 | 34534 ft | 455 kts | 169° |
| 2026-05-07 20:14 | 49.28182 | 6.60786 | 34188 ft | 455 kts | 169° |
| 2026-05-07 20:15 | 49.25130 | 6.61912 | 33791 ft | 455 kts | 169° |
| 2026-05-07 20:15 | 49.22027 | 6.63054 | 33383 ft | 455 kts | 169° |
| 2026-05-07 20:15 | 49.18938 | 6.64191 | 33074 ft | 457 kts | 169° |
| 2026-05-07 20:16 | 49.12755 | 6.66461 | 33069 ft | 460 kts | 169° |
| 2026-05-07 20:16 | 49.06515 | 6.68747 | 33227 ft | 460 kts | 169° |
| 2026-05-07 20:16 | 49.03408 | 6.69633 | 33712 ft | 452 kts | 177° |
| 2026-05-07 20:17 | 49.00277 | 6.69738 | 34159 ft | 445 kts | 184° |
| 2026-05-07 20:17 | 48.97198 | 6.69629 | 34554 ft | 441 kts | 185° |
| 2026-05-07 20:17 | 48.94150 | 6.69493 | 34944 ft | 438 kts | 185° |
| 2026-05-07 20:17 | 48.91076 | 6.69358 | 35048 ft | 442 kts | 184° |
| 2026-05-07 20:18 | 48.87984 | 6.69236 | 35066 ft | 448 kts | 184° |
| 2026-05-07 20:18 | 48.81672 | 6.69035 | 35069 ft | 456 kts | 184° |
| 2026-05-07 20:19 | 48.75332 | 6.68873 | 35058 ft | 455 kts | 184° |
| 2026-05-07 20:19 | 48.69023 | 6.68720 | 35067 ft | 454 kts | 184° |
| 2026-05-07 20:20 | 48.62720 | 6.68564 | 35060 ft | 453 kts | 184° |
| 2026-05-07 20:20 | 48.56416 | 6.68407 | 35070 ft | 453 kts | 184° |
| 2026-05-07 20:21 | 48.50111 | 6.68249 | 35069 ft | 452 kts | 184° |
| 2026-05-07 20:21 | 48.43804 | 6.68092 | 35062 ft | 452 kts | 184° |
| 2026-05-07 20:22 | 48.37538 | 6.67936 | 35068 ft | 452 kts | 184° |
| 2026-05-07 20:22 | 48.31251 | 6.67780 | 35060 ft | 452 kts | 184° |
| 2026-05-07 20:23 | 48.24976 | 6.67625 | 35060 ft | 451 kts | 184° |
| 2026-05-07 20:23 | 48.18725 | 6.67474 | 35040 ft | 440 kts | 184° |
| 2026-05-07 20:23 | 48.15684 | 6.67402 | 34746 ft | 436 kts | 185° |
| 2026-05-07 20:24 | 48.12648 | 6.67326 | 34482 ft | 440 kts | 185° |
| 2026-05-07 20:24 | 48.09548 | 6.67246 | 34200 ft | 444 kts | 185° |
| 2026-05-07 20:24 | 48.06452 | 6.67167 | 33959 ft | 448 kts | 185° |
| 2026-05-07 20:24 | 48.03325 | 6.67088 | 33679 ft | 450 kts | 185° |
| 2026-05-07 20:25 | 48.00207 | 6.67012 | 33391 ft | 446 kts | 185° |
| 2026-05-07 20:25 | 47.97116 | 6.66939 | 33115 ft | 444 kts | 185° |
| 2026-05-07 20:25 | 47.94046 | 6.66866 | 32843 ft | 441 kts | 185° |
| 2026-05-07 20:25 | 47.90973 | 6.66792 | 32579 ft | 439 kts | 185° |
| 2026-05-07 20:26 | 47.87931 | 6.66718 | 32303 ft | 438 kts | 185° |
| 2026-05-07 20:26 | 47.84879 | 6.66644 | 32037 ft | 436 kts | 185° |
| 2026-05-07 20:26 | 47.81856 | 6.66570 | 31778 ft | 435 kts | 185° |
| 2026-05-07 20:26 | 47.78834 | 6.66496 | 31516 ft | 433 kts | 185° |
| 2026-05-07 20:27 | 47.75835 | 6.66423 | 31261 ft | 432 kts | 185° |
| 2026-05-07 20:27 | 47.72810 | 6.66349 | 31018 ft | 431 kts | 185° |
| 2026-05-07 20:27 | 47.69821 | 6.66277 | 30761 ft | 430 kts | 185° |
| 2026-05-07 20:27 | 47.66849 | 6.66205 | 30515 ft | 429 kts | 185° |
| 2026-05-07 20:28 | 47.63865 | 6.66133 | 30266 ft | 428 kts | 185° |
| 2026-05-07 20:28 | 47.60884 | 6.66061 | 30006 ft | 427 kts | 185° |
| 2026-05-07 20:28 | 47.57901 | 6.65989 | 29718 ft | 425 kts | 185° |
| 2026-05-07 20:28 | 47.54977 | 6.65919 | 29429 ft | 424 kts | 184° |
| 2026-05-07 20:29 | 47.52038 | 6.65848 | 29119 ft | 425 kts | 184° |
| 2026-05-07 20:29 | 47.48976 | 6.65769 | 28515 ft | 443 kts | 184° |
| 2026-05-07 20:29 | 47.45895 | 6.65694 | 27908 ft | 445 kts | 184° |
| 2026-05-07 20:29 | 47.42832 | 6.65624 | 27306 ft | 440 kts | 184° |
| 2026-05-07 20:30 | 47.39779 | 6.65554 | 26694 ft | 436 kts | 184° |
| 2026-05-07 20:30 | 47.36741 | 6.65462 | 26090 ft | 431 kts | 184° |
| 2026-05-07 20:30 | 47.33756 | 6.65347 | 25503 ft | 427 kts | 184° |
| 2026-05-07 20:30 | 47.30817 | 6.65230 | 24913 ft | 420 kts | 184° |
| 2026-05-07 20:31 | 47.27922 | 6.65119 | 24341 ft | 415 kts | 184° |
| 2026-05-07 20:31 | 47.25043 | 6.65012 | 23788 ft | 413 kts | 184° |
| 2026-05-07 20:31 | 47.22214 | 6.64443 | 23113 ft | 407 kts | 200° |
| 2026-05-07 20:31 | 47.19688 | 6.62712 | 22780 ft | 398 kts | 216° |
| 2026-05-07 20:32 | 47.17525 | 6.60143 | 22475 ft | 398 kts | 223° |
| 2026-05-07 20:32 | 47.15479 | 6.57428 | 22174 ft | 400 kts | 224° |
| 2026-05-07 20:32 | 47.13421 | 6.54647 | 21853 ft | 398 kts | 224° |
| 2026-05-07 20:32 | 47.11405 | 6.51936 | 21552 ft | 395 kts | 224° |
| 2026-05-07 20:33 | 47.09343 | 6.49290 | 21222 ft | 392 kts | 219° |
| 2026-05-07 20:33 | 47.07042 | 6.47164 | 20779 ft | 389 kts | 211° |
| 2026-05-07 20:33 | 47.04681 | 6.45261 | 20402 ft | 386 kts | 210° |
| 2026-05-07 20:33 | 47.02298 | 6.43375 | 20070 ft | 388 kts | 210° |
| 2026-05-07 20:34 | 46.99908 | 6.41480 | 19741 ft | 398 kts | 210° |
| 2026-05-07 20:34 | 46.97449 | 6.39520 | 19396 ft | 402 kts | 211° |
| 2026-05-07 20:34 | 46.94985 | 6.37549 | 19040 ft | 397 kts | 211° |
| 2026-05-07 20:34 | 46.92596 | 6.35630 | 18710 ft | 395 kts | 211° |
| 2026-05-07 20:35 | 46.90167 | 6.33674 | 18373 ft | 393 kts | 211° |
| 2026-05-07 20:35 | 46.87794 | 6.31762 | 18004 ft | 392 kts | 211° |
| 2026-05-07 20:35 | 46.86216 | 6.30490 | 17767 ft | 391 kts | 211° |
| 2026-05-07 20:35 | 46.83039 | 6.27931 | 17304 ft | 388 kts | 211° |
| 2026-05-07 20:36 | 46.80692 | 6.26041 | 16973 ft | 386 kts | 210° |
| 2026-05-07 20:36 | 46.79104 | 6.24765 | 16749 ft | 386 kts | 210° |
| 2026-05-07 20:36 | 46.76753 | 6.22875 | 16420 ft | 384 kts | 210° |
| 2026-05-07 20:36 | 46.74422 | 6.21005 | 16101 ft | 383 kts | 210° |
| 2026-05-07 20:37 | 46.72101 | 6.19144 | 15783 ft | 380 kts | 210° |
| 2026-05-07 20:37 | 46.69820 | 6.17318 | 15452 ft | 368 kts | 210° |
| 2026-05-07 20:37 | 46.67614 | 6.15554 | 15142 ft | 356 kts | 210° |
| 2026-05-07 20:37 | 46.65473 | 6.13844 | 14849 ft | 344 kts | 210° |
| 2026-05-07 20:38 | 46.63406 | 6.12194 | 14560 ft | 335 kts | 210° |
| 2026-05-07 20:38 | 46.61368 | 6.10567 | 14292 ft | 332 kts | 210° |
| 2026-05-07 20:38 | 46.59358 | 6.08962 | 14004 ft | 330 kts | 210° |
| 2026-05-07 20:38 | 46.57349 | 6.07361 | 13732 ft | 329 kts | 210° |
| 2026-05-07 20:39 | 46.55348 | 6.05768 | 13424 ft | 327 kts | 210° |
| 2026-05-07 20:39 | 46.53371 | 6.04195 | 13140 ft | 326 kts | 210° |
| 2026-05-07 20:39 | 46.51367 | 6.02602 | 12850 ft | 325 kts | 210° |
| 2026-05-07 20:39 | 46.49403 | 6.01043 | 12566 ft | 322 kts | 209° |
| 2026-05-07 20:40 | 46.47444 | 5.99489 | 12299 ft | 320 kts | 209° |
| 2026-05-07 20:40 | 46.45489 | 5.97940 | 12025 ft | 318 kts | 209° |
| 2026-05-07 20:40 | 46.43556 | 5.96409 | 11756 ft | 316 kts | 209° |
| 2026-05-07 20:40 | 46.41629 | 5.94884 | 11493 ft | 315 kts | 209° |
| 2026-05-07 20:41 | 46.39720 | 5.93374 | 11226 ft | 313 kts | 209° |
| 2026-05-07 20:41 | 46.37795 | 5.91853 | 10966 ft | 312 kts | 209° |
| 2026-05-07 20:41 | 46.35911 | 5.90366 | 10704 ft | 309 kts | 209° |
| 2026-05-07 20:41 | 46.34049 | 5.88898 | 10420 ft | 299 kts | 209° |
| 2026-05-07 20:42 | 46.32237 | 5.87470 | 10184 ft | 289 kts | 209° |
| 2026-05-07 20:42 | 46.30515 | 5.86114 | 9941 ft | 281 kts | 209° |
| 2026-05-07 20:42 | 46.28822 | 5.84781 | 9685 ft | 273 kts | 209° |
| 2026-05-07 20:42 | 46.27179 | 5.83488 | 9449 ft | 269 kts | 209° |
| 2026-05-07 20:43 | 46.25524 | 5.82187 | 9220 ft | 268 kts | 209° |
| 2026-05-07 20:43 | 46.23898 | 5.80910 | 8978 ft | 269 kts | 209° |
| 2026-05-07 20:43 | 46.22255 | 5.79619 | 8765 ft | 265 kts | 208° |
| 2026-05-07 20:43 | 46.20649 | 5.78360 | 8545 ft | 257 kts | 208° |
| 2026-05-07 20:44 | 46.19120 | 5.77160 | 8326 ft | 244 kts | 208° |
| 2026-05-07 20:44 | 46.17662 | 5.76018 | 8113 ft | 236 kts | 208° |
| 2026-05-07 20:44 | 46.16213 | 5.74883 | 7900 ft | 234 kts | 208° |
| 2026-05-07 20:44 | 46.14801 | 5.73777 | 7669 ft | 235 kts | 208° |
| 2026-05-07 20:45 | 46.13324 | 5.72622 | 7140 ft | 241 kts | 208° |
| 2026-05-07 20:45 | 46.11855 | 5.71474 | 6666 ft | 241 kts | 208° |
| 2026-05-07 20:45 | 46.10285 | 5.70667 | 6177 ft | 240 kts | 180° |
| 2026-05-07 20:45 | 46.08723 | 5.71284 | 6050 ft | 235 kts | 149° |
| 2026-05-07 20:46 | 46.07540 | 5.72902 | 6012 ft | 239 kts | 125° |
| 2026-05-07 20:46 | 46.06918 | 5.75109 | 5997 ft | 241 kts | 103° |
| 2026-05-07 20:46 | 46.06679 | 5.77495 | 5973 ft | 237 kts | 97° |
| 2026-05-07 20:46 | 46.06506 | 5.79804 | 5963 ft | 226 kts | 97° |
| 2026-05-07 20:47 | 46.06338 | 5.81989 | 5967 ft | 219 kts | 98° |
| 2026-05-07 20:47 | 46.06336 | 5.84171 | 5959 ft | 218 kts | 73° |
| 2026-05-07 20:47 | 46.07136 | 5.86054 | 5801 ft | 224 kts | 52° |
| 2026-05-07 20:47 | 46.08119 | 5.87701 | 5514 ft | 211 kts | 49° |
| 2026-05-07 20:48 | 46.09091 | 5.89185 | 5255 ft | 196 kts | 47° |
| 2026-05-07 20:48 | 46.10021 | 5.90562 | 5006 ft | 185 kts | 47° |
| 2026-05-07 20:48 | 46.10889 | 5.91844 | 4764 ft | 178 kts | 47° |
| 2026-05-07 20:48 | 46.11750 | 5.93117 | 4542 ft | 178 kts | 47° |
| 2026-05-07 20:49 | 46.12626 | 5.94411 | 4293 ft | 178 kts | 47° |
| 2026-05-07 20:49 | 46.13480 | 5.95672 | 4055 ft | 176 kts | 46° |
| 2026-05-07 20:49 | 46.14328 | 5.96925 | 3820 ft | 175 kts | 46° |
| 2026-05-07 20:49 | 46.15172 | 5.98170 | 3591 ft | 173 kts | 46° |
| 2026-05-07 20:50 | 46.16014 | 5.99412 | 3368 ft | 173 kts | 46° |
| 2026-05-07 20:50 | 46.16857 | 6.00656 | 3129 ft | 171 kts | 46° |
| 2026-05-07 20:50 | 46.17651 | 6.01828 | 2928 ft | 154 kts | 46° |
| 2026-05-07 20:50 | 46.18377 | 6.02903 | 2672 ft | 148 kts | 46° |
| 2026-05-07 20:51 | 46.19084 | 6.03969 | 2445 ft | 146 kts | 46° |
| 2026-05-07 20:51 | 46.19789 | 6.05010 | 2255 ft | 146 kts | 44° |
| 2026-05-07 20:51 | 46.20509 | 6.06035 | 2055 ft | 144 kts | 45° |
| 2026-05-07 20:51 | 46.21191 | 6.07051 | 1860 ft | 141 kts | 46° |
| 2026-05-07 20:52 | 46.21873 | 6.08050 | 1686 ft | 138 kts | 46° |
| 2026-05-07 20:52 | 46.22556 | 6.09052 | 1512 ft | 140 kts | 46° |
| 2026-05-07 20:52 | 46.23218 | 6.10034 | 1417 ft | 130 kts | 47° |
| 2026-05-07 20:52 | 46.23788 | 6.10869 | 1405 ft | 100 kts | 45° |
| 2026-05-07 20:53 | 46.24188 | 6.11451 | 1386 ft | 61 kts | 46° |
| 2026-05-07 20:53 | 46.24334 | 6.11834 | 1384 ft | 26 kts | 79° |
| 2026-05-07 20:53 | 46.24338 | 6.11868 | 1384 ft | 1 kts | 79° |
| 2026-05-07 20:53 | 46.24339 | 6.11874 | 1384 ft | 1 kts | 79° |
| 2026-05-07 20:54 | 46.24341 | 6.11886 | 1383 ft | 5 kts | 84° |
| 2026-05-07 20:54 | 46.24301 | 6.11932 | 1381 ft | 12 kts | 186° |
| 2026-05-07 20:54 | 46.24233 | 6.11855 | 1380 ft | 13 kts | 226° |
| 2026-05-07 20:54 | 46.24173 | 6.11766 | 1379 ft | 12 kts | 222° |
| 2026-05-07 20:55 | 46.24115 | 6.11679 | 1384 ft | 12 kts | 226° |
| 2026-05-07 20:55 | 46.24058 | 6.11595 | 1389 ft | 12 kts | 225° |
| 2026-05-07 20:55 | 46.24002 | 6.11513 | 1389 ft | 11 kts | 225° |
| 2026-05-07 20:55 | 46.23968 | 6.11465 | 1398 ft | 0 kts | 225° |
| 2026-05-07 20:56 | 46.23963 | 6.11458 | 1396 ft | 2 kts | 226° |
| 2026-05-07 20:56 | 46.23953 | 6.11443 | 1396 ft | 2 kts | 226° |
| 2026-05-07 20:56 | 46.23944 | 6.11428 | 1399 ft | 2 kts | 226° |
| 2026-05-07 20:56 | 46.23934 | 6.11414 | 1394 ft | 2 kts | 226° |
| 2026-05-07 20:57 | 46.23917 | 6.11389 | 1398 ft | 5 kts | 225° |
| 2026-05-07 20:57 | 46.23890 | 6.11350 | 1395 ft | 5 kts | 225° |
| 2026-05-07 20:57 | 46.23864 | 6.11312 | 1396 ft | 5 kts | 225° |
| 2026-05-07 20:57 | 46.23834 | 6.11267 | 1399 ft | 9 kts | 226° |
| 2026-05-07 20:58 | 46.23782 | 6.11190 | 1399 ft | 11 kts | 226° |
| 2026-05-07 20:58 | 46.23729 | 6.11113 | 1398 ft | 11 kts | 224° |
| 2026-05-07 20:58 | 46.23665 | 6.11083 | 1396 ft | 10 kts | 155° |
| 2026-05-07 20:58 | 46.23608 | 6.11152 | 1395 ft | 11 kts | 142° |
| 2026-05-07 20:59 | 46.23541 | 6.11120 | 1395 ft | 11 kts | 225° |
| 2026-05-07 20:59 | 46.23487 | 6.11042 | 1398 ft | 11 kts | 225° |
| 2026-05-07 20:59 | 46.23426 | 6.10952 | 1399 ft | 13 kts | 227° |
| 2026-05-07 20:59 | 46.23364 | 6.10858 | 1395 ft | 13 kts | 226° |
| 2026-05-07 21:00 | 46.23300 | 6.10797 | 1403 ft | 11 kts | 199° |
| 2026-05-07 21:00 | 46.23232 | 6.10749 | 1404 ft | 11 kts | 218° |
| 2026-05-07 21:00 | 46.23167 | 6.10728 | 1408 ft | 10 kts | 142° |
| 2026-05-07 21:00 | 46.23160 | 6.10738 | 1405 ft | 0 kts | 135° |